Time;durP1;ratioP1;P1;durP2;ratioP2;P2;SDS_P1;SDS_P2;PMS_P1;PMS_P2;Temp;Humidity;BMP_temperature;BMP_pressure;BME280_temperature;BME280_humidity;BME280_pressure;Samples;Min_cycle;Max_cycle;Signal;HPM_P1;HPM_P2
2023/06/02 00:00:09;;;;;;;7.07;6.43;;;;;;;16.58;67.97;98593.97;4128270;28;20358;-44
2023/06/02 00:02:10;;;;;;;8.02;6.82;;;;;;;16.51;68.37;98594.31;4128583;28;20249;-44
2023/06/02 00:04:14;;;;;;;7.60;6.50;;;;;;;16.52;68.51;98595.97;4114435;28;20249;-44
2023/06/02 00:06:18;;;;;;;7.00;6.40;;;;;;;16.43;68.70;98599.63;4115138;28;21103;-45
2023/06/02 00:08:20;;;;;;;14.85;6.57;;;;;;;16.40;68.89;98595.47;4115561;28;20215;-47
2023/06/02 00:10:22;;;;;;;8.45;6.78;;;;;;;16.32;69.25;98585.00;4114998;28;20211;-47
2023/06/02 00:12:23;;;;;;;7.85;7.10;;;;;;;16.27;69.32;98590.56;4115811;28;20210;-44
2023/06/02 00:14:25;;;;;;;6.28;5.45;;;;;;;16.23;69.56;98592.22;4089289;28;20302;-44
2023/06/02 00:16:27;;;;;;;7.85;6.70;;;;;;;16.24;69.66;98593.88;4109442;28;20222;-45
2023/06/02 00:18:32;;;;;;;7.15;6.47;;;;;;;16.20;69.92;98589.19;4114988;28;21063;-45
2023/06/02 00:20:34;;;;;;;7.05;6.47;;;;;;;16.14;69.77;98588.41;4115818;28;20262;-46
2023/06/02 00:22:38;;;;;;;9.05;7.30;;;;;;;16.17;69.90;98584.25;4116913;28;20210;-45
2023/06/02 00:24:40;;;;;;;6.82;6.32;;;;;;;16.09;70.27;98599.47;4113831;28;20223;-45
2023/06/02 00:26:42;;;;;;;7.68;6.88;;;;;;;16.09;70.18;98593.94;4112871;28;20207;-44
2023/06/02 00:28:44;;;;;;;6.50;5.93;;;;;;;16.08;70.47;98595.06;4109095;28;20639;-46
2023/06/02 00:30:46;;;;;;;7.05;6.45;;;;;;;16.05;70.44;98598.41;4114284;28;20218;-45
2023/06/02 00:32:47;;;;;;;7.10;6.43;;;;;;;15.99;70.74;98596.78;4115715;28;20273;-44
2023/06/02 00:34:49;;;;;;;7.57;6.88;;;;;;;15.97;70.88;98592.66;4119320;28;20217;-45
2023/06/02 00:36:51;;;;;;;7.28;6.68;;;;;;;15.88;71.35;98599.84;4115611;28;20214;-44
2023/06/02 00:38:52;;;;;;;8.30;7.55;;;;;;;15.80;71.54;98603.19;4115532;28;20211;-44
2023/06/02 00:40:54;;;;;;;7.22;6.63;;;;;;;15.76;71.71;98602.13;4114511;28;20222;-44
2023/06/02 00:42:56;;;;;;;6.90;6.30;;;;;;;15.72;71.94;98601.84;4113600;28;20637;-45
2023/06/02 00:44:58;;;;;;;6.95;6.38;;;;;;;15.65;72.13;98601.31;4115140;28;20589;-44
2023/06/02 00:46:59;;;;;;;8.32;6.78;;;;;;;15.60;72.39;98606.84;4113080;28;20211;-45
2023/06/02 00:49:01;;;;;;;6.80;6.20;;;;;;;15.62;72.44;98607.38;4106866;28;20322;-46
2023/06/02 00:51:04;;;;;;;7.47;6.78;;;;;;;15.57;72.64;98603.81;4111678;28;20219;-44
2023/06/02 00:53:06;;;;;;;5.85;5.40;;;;;;;15.57;73.13;98607.38;4112000;28;20230;-44
2023/06/02 00:55:08;;;;;;;7.78;7.03;;;;;;;15.59;72.89;98605.19;4113430;28;20206;-44
2023/06/02 00:57:10;;;;;;;6.57;5.95;;;;;;;15.58;73.13;98611.81;4115096;28;20226;-45
2023/06/02 00:59:12;;;;;;;8.02;7.22;;;;;;;15.53;73.12;98608.22;4113409;28;20261;-45
2023/06/02 01:01:18;;;;;;;7.25;6.47;;;;;;;15.50;73.16;98609.63;4113526;28;20681;-45
2023/06/02 01:03:21;;;;;;;7.18;6.55;;;;;;;15.49;73.32;98613.47;4109303;28;20230;-44
2023/06/02 01:05:23;;;;;;;6.70;6.10;;;;;;;15.38;73.12;98617.38;4114057;28;20229;-46
2023/06/02 01:07:27;;;;;;;8.45;5.93;;;;;;;15.38;73.32;98622.91;4113985;28;20220;-45
2023/06/02 01:09:30;;;;;;;6.35;5.72;;;;;;;15.40;73.66;98615.16;4113935;28;20735;-44
2023/06/02 01:11:32;;;;;;;7.30;6.70;;;;;;;15.44;74.01;98621.75;4100818;28;20298;-45
2023/06/02 01:13:35;;;;;;;6.82;6.20;;;;;;;15.36;73.89;98619.56;4114583;28;20353;-45
2023/06/02 01:15:37;;;;;;;6.97;6.38;;;;;;;15.32;74.18;98621.25;4113429;28;20206;-46
2023/06/02 01:17:45;;;;;;;9.57;5.85;;;;;;;15.27;74.47;98621.22;4113894;28;20676;-45
2023/06/02 01:19:49;;;;;;;6.82;6.15;;;;;;;15.29;74.82;98621.75;4115374;28;20238;-45
2023/06/02 01:21:58;;;;;;;8.15;7.35;;;;;;;15.18;75.27;98628.41;4112506;28;20656;-45
2023/06/02 01:24:01;;;;;;;9.05;7.63;;;;;;;15.19;75.74;98630.06;4092600;29;20231;-45
2023/06/02 01:26:05;;;;;;;8.27;7.50;;;;;;;15.20;75.81;98631.69;4106149;28;20281;-45
2023/06/02 01:28:07;;;;;;;11.63;6.55;;;;;;;15.22;76.01;98623.97;4114195;28;20207;-45
2023/06/02 01:30:09;;;;;;;8.52;7.75;;;;;;;15.10;76.06;98626.19;4114324;28;20620;-47
2023/06/02 01:32:17;;;;;;;7.20;6.50;;;;;;;15.05;76.72;98617.94;4113477;28;20673;-45
2023/06/02 01:34:27;;;;;;;8.82;7.93;;;;;;;15.06;76.86;98624.25;4097352;28;20214;-45
2023/06/02 01:36:30;;;;;;;8.10;7.50;;;;;;;14.74;78.32;98627.28;4097373;28;20267;-45
2023/06/02 01:38:31;;;;;;;8.43;7.53;;;;;;;14.76;78.74;98625.06;4128753;28;20211;-45
2023/06/02 01:40:34;;;;;;;10.25;7.07;;;;;;;14.50;80.37;98626.13;4110569;28;20213;-44
2023/06/02 01:42:36;;;;;;;7.57;6.88;;;;;;;14.74;79.23;98621.78;4097508;29;20683;-45
2023/06/02 01:44:39;;;;;;;8.25;7.55;;;;;;;14.72;79.60;98626.75;4097597;28;20227;-45
2023/06/02 01:46:40;;;;;;;8.27;7.35;;;;;;;14.72;80.04;98635.00;4113863;28;20266;-45
2023/06/02 01:48:43;;;;;;;8.57;7.85;;;;;;;14.66;80.11;98632.50;4097843;28;20212;-46
2023/06/02 01:50:45;;;;;;;8.10;7.47;;;;;;;14.62;80.28;98626.72;4113646;28;20607;-45
2023/06/02 01:52:47;;;;;;;10.52;8.32;;;;;;;14.59;80.64;98630.03;4113790;28;20238;-45
2023/06/02 01:54:50;;;;;;;7.85;7.28;;;;;;;14.59;81.22;98626.44;4113741;28;20238;-44
2023/06/02 01:56:52;;;;;;;7.95;7.25;;;;;;;14.28;81.80;98633.78;4108722;28;20285;-44
2023/06/02 01:58:55;;;;;;;10.75;7.45;;;;;;;14.36;82.03;98630.50;4105301;28;20218;-45
2023/06/02 02:00:57;;;;;;;8.30;7.47;;;;;;;14.26;82.74;98627.75;4113254;28;20207;-45
2023/06/02 02:02:58;;;;;;;8.55;7.75;;;;;;;14.31;82.61;98627.72;4114224;28;20235;-45
2023/06/02 02:05:00;;;;;;;7.22;6.63;;;;;;;14.38;82.64;98628.31;4097767;28;20624;-45
2023/06/02 02:07:02;;;;;;;7.68;7.07;;;;;;;14.48;82.22;98627.50;4116007;28;20214;-44
2023/06/02 02:09:04;;;;;;;7.80;6.95;;;;;;;14.48;82.34;98636.59;4129736;28;20587;-46
2023/06/02 02:11:06;;;;;;;7.80;7.22;;;;;;;14.44;82.03;98629.16;4114019;28;20294;-49
2023/06/02 02:13:07;;;;;;;7.13;6.55;;;;;;;14.50;82.21;98633.59;4109788;28;20723;-45
2023/06/02 02:15:10;;;;;;;8.82;6.50;;;;;;;14.46;82.26;98619.53;4116646;28;20215;-46
2023/06/02 02:17:12;;;;;;;9.73;7.03;;;;;;;14.43;82.69;98636.59;4129072;28;20575;-46
2023/06/02 02:19:16;;;;;;;8.80;8.05;;;;;;;13.28;87.61;98638.75;4111577;28;20206;-45
2023/06/02 02:21:18;;;;;;;8.27;7.53;;;;;;;13.47;87.60;98637.25;4113679;28;20569;-44
2023/06/02 02:23:19;;;;;;;7.68;7.05;;;;;;;13.83;86.12;98627.28;4113102;28;20239;-45
2023/06/02 02:25:21;;;;;;;8.07;7.38;;;;;;;13.95;85.32;98636.94;4113522;28;20708;-46
2023/06/02 02:27:23;;;;;;;7.28;6.78;;;;;;;13.97;84.98;98632.00;4106019;28;20246;-47
2023/06/02 02:29:25;;;;;;;8.68;7.72;;;;;;;13.96;84.25;98633.09;4106084;28;20211;-45
2023/06/02 02:31:27;;;;;;;7.85;7.25;;;;;;;13.96;85.39;98630.34;4105498;28;20218;-45
2023/06/02 02:33:29;;;;;;;12.82;6.63;;;;;;;13.85;85.56;98634.16;4113631;28;20262;-45
2023/06/02 02:35:30;;;;;;;7.20;6.65;;;;;;;14.06;84.72;98637.81;4127812;28;20646;-46
2023/06/02 02:37:32;;;;;;;8.13;7.32;;;;;;;14.08;84.13;98639.19;4113637;28;20198;-45
2023/06/02 02:39:47;;;;;;;7.85;7.07;;;;;;;14.15;83.97;98634.28;4113908;28;20214;-45
2023/06/02 02:41:49;;;;;;;7.18;6.45;;;;;;;14.11;84.01;98641.41;4113363;28;20210;-45
2023/06/02 02:43:50;;;;;;;7.03;6.43;;;;;;;14.08;84.27;98644.69;4108559;28;20246;-45
2023/06/02 02:45:52;;;;;;;7.15;6.55;;;;;;;14.16;83.91;98654.38;4113406;28;20346;-46
2023/06/02 02:47:54;;;;;;;9.95;6.88;;;;;;;14.04;84.69;98649.06;4113194;28;20215;-46
2023/06/02 02:49:56;;;;;;;7.32;6.70;;;;;;;13.75;85.64;98650.59;4112796;28;20207;-46
2023/06/02 02:51:58;;;;;;;6.97;6.32;;;;;;;13.97;85.29;98654.00;4113624;28;20249;-45
2023/06/02 02:53:59;;;;;;;8.45;7.75;;;;;;;13.87;85.46;98647.63;4113127;28;20620;-45
2023/06/02 02:56:02;;;;;;;7.90;7.25;;;;;;;13.89;85.60;98646.28;4112077;28;20300;-45
2023/06/02 02:58:04;;;;;;;7.05;5.68;;;;;;;13.93;85.36;98647.41;4112964;28;20214;-46
2023/06/02 03:00:09;;;;;;;7.55;6.95;;;;;;;13.98;84.81;98649.34;4112386;28;20253;-45
2023/06/02 03:02:11;;;;;;;8.35;7.65;;;;;;;13.67;86.70;98653.88;4128640;28;20284;-46
2023/06/02 03:04:18;;;;;;;7.35;6.75;;;;;;;13.78;85.93;98657.50;4111655;28;20294;-46
2023/06/02 03:06:21;;;;;;;7.93;7.22;;;;;;;13.78;86.25;98665.75;4096060;28;20270;-44
2023/06/02 03:08:23;;;;;;;8.07;7.40;;;;;;;13.77;86.04;98664.09;4097816;28;20274;-46
2023/06/02 03:10:24;;;;;;;6.68;5.93;;;;;;;13.79;86.20;98662.75;4111713;28;20269;-45
2023/06/02 03:12:26;;;;;;;7.03;6.43;;;;;;;13.61;85.83;98665.94;4110845;28;20206;-45
2023/06/02 03:14:29;;;;;;;6.97;6.05;;;;;;;13.72;86.46;98666.81;4112169;28;20265;-45
2023/06/02 03:16:31;;;;;;;7.57;6.97;;;;;;;13.10;89.04;98674.88;4118000;28;21811;-45
2023/06/02 03:18:33;;;;;;;7.57;6.88;;;;;;;13.29;89.50;98672.59;4101096;28;20211;-44
2023/06/02 03:20:36;;;;;;;8.70;7.80;;;;;;;12.85;91.21;98671.88;4112430;28;20219;-44
2023/06/02 03:22:38;;;;;;;11.32;7.32;;;;;;;13.21;89.91;98668.41;4097453;28;20319;-46
2023/06/02 03:24:40;;;;;;;8.02;7.32;;;;;;;12.81;91.74;98676.25;4102427;28;20214;-45
2023/06/02 03:26:42;;;;;;;7.57;6.97;;;;;;;12.82;92.48;98668.81;4112822;28;20234;-45
2023/06/02 03:28:45;;;;;;;8.40;7.70;;;;;;;12.29;94.21;98677.06;4113013;28;20207;-45
2023/06/02 03:30:47;;;;;;;11.07;7.82;;;;;;;12.52;94.03;98666.63;4112835;28;20243;-44
2023/06/02 03:32:49;;;;;;;9.13;8.32;;;;;;;12.92;92.74;98672.53;4112929;28;20226;-44
2023/06/02 03:34:52;;;;;;;7.47;6.80;;;;;;;12.99;91.99;98672.31;4113270;28;20679;-44
2023/06/02 03:36:53;;;;;;;8.50;7.72;;;;;;;13.04;91.27;98675.94;4112860;28;20262;-45
2023/06/02 03:38:55;;;;;;;8.38;7.78;;;;;;;12.96;91.74;98673.66;4106553;28;20215;-46
2023/06/02 03:40:57;;;;;;;7.95;7.25;;;;;;;13.07;91.30;98680.06;4112054;28;20215;-45
2023/06/02 03:42:58;;;;;;;8.90;8.23;;;;;;;12.67;93.14;98674.19;4111821;28;20246;-45
2023/06/02 03:45:00;;;;;;;7.93;7.22;;;;;;;12.90;92.00;98671.94;4089235;28;20267;-45
2023/06/02 03:47:02;;;;;;;8.02;7.43;;;;;;;12.98;91.44;98676.16;4102379;28;20207;-45
2023/06/02 03:49:03;;;;;;;8.15;7.43;;;;;;;13.07;90.46;98680.91;4110713;28;20751;-44
2023/06/02 03:51:05;;;;;;;8.48;7.68;;;;;;;13.00;91.17;98684.97;4108087;28;20666;-45
2023/06/02 03:53:09;;;;;;;7.72;7.03;;;;;;;13.03;91.60;98684.47;4108582;28;20226;-46
2023/06/02 03:55:11;;;;;;;9.68;8.65;;;;;;;13.16;91.58;98673.84;4110416;28;20662;-45
2023/06/02 03:57:13;;;;;;;8.07;7.47;;;;;;;13.09;91.02;98681.47;4108703;28;20246;-47
2023/06/02 03:59:15;;;;;;;7.82;7.15;;;;;;;13.14;91.18;98676.03;4107985;28;20214;-45
2023/06/02 04:01:21;;;;;;;7.55;6.95;;;;;;;13.14;91.62;98678.78;4110713;28;20211;-47
2023/06/02 04:03:22;;;;;;;9.38;8.45;;;;;;;13.07;91.38;98686.41;4107220;28;20713;-45
2023/06/02 04:05:24;;;;;;;10.77;7.55;;;;;;;13.12;91.90;98682.88;4128274;28;20236;-44
2023/06/02 04:07:26;;;;;;;7.95;7.25;;;;;;;13.16;91.21;98689.53;4111811;28;20206;-45
2023/06/02 04:09:28;;;;;;;9.30;8.50;;;;;;;13.04;92.10;98691.59;4111828;28;20241;-45
2023/06/02 04:11:30;;;;;;;8.73;7.82;;;;;;;13.13;91.77;98696.38;4111284;28;20215;-45
2023/06/02 04:13:31;;;;;;;8.88;8.20;;;;;;;13.25;91.33;98694.25;4095682;28;20227;-45
2023/06/02 04:15:33;;;;;;;8.00;7.30;;;;;;;12.94;92.20;98702.44;4126297;28;21102;-44
2023/06/02 04:17:36;;;;;;;10.10;7.25;;;;;;;12.88;93.25;98696.09;4112443;28;20658;-44
2023/06/02 04:19:38;;;;;;;7.90;7.30;;;;;;;12.85;93.46;98698.53;4112348;28;20223;-45
2023/06/02 04:21:40;;;;;;;8.27;7.68;;;;;;;12.67;94.66;98699.72;4111280;28;20208;-45
2023/06/02 04:23:41;;;;;;;8.82;8.15;;;;;;;12.45;96.21;98703.59;4111800;28;20231;-45
2023/06/02 04:25:43;;;;;;;9.90;9.10;;;;;;;12.62;95.34;98699.66;4112654;28;20230;-46
2023/06/02 04:27:45;;;;;;;9.40;8.43;;;;;;;12.35;96.54;98704.31;4109282;28;20210;-45
2023/06/02 04:29:47;;;;;;;9.05;8.35;;;;;;;12.52;96.81;98701.47;4110829;28;20249;-45
2023/06/02 04:31:48;;;;;;;9.98;8.98;;;;;;;12.30;97.27;98701.50;4093975;28;20208;-46
2023/06/02 04:33:50;;;;;;;8.52;7.82;;;;;;;12.59;96.01;98700.22;4127212;28;20249;-44
2023/06/02 04:35:52;;;;;;;8.60;7.93;;;;;;;12.61;95.53;98703.50;4111430;28;20716;-44
2023/06/02 04:37:54;;;;;;;8.93;8.13;;;;;;;12.83;94.64;98700.72;4109586;28;20218;-45
2023/06/02 04:39:55;;;;;;;10.05;9.15;;;;;;;12.71;95.75;98698.09;4112337;28;20234;-46
2023/06/02 04:41:57;;;;;;;8.52;7.85;;;;;;;12.86;94.59;98700.19;4112074;28;20207;-45
2023/06/02 04:44:00;;;;;;;10.15;9.30;;;;;;;13.07;93.89;98697.41;4109301;28;20246;-45
2023/06/02 04:46:02;;;;;;;8.80;8.10;;;;;;;13.26;92.98;98706.91;4107564;28;20258;-45
2023/06/02 04:48:04;;;;;;;9.73;8.77;;;;;;;13.13;93.79;98704.59;4110172;28;20293;-45
2023/06/02 04:50:08;;;;;;;8.82;8.02;;;;;;;13.30;93.00;98705.28;4109840;28;20222;-45
2023/06/02 04:52:10;;;;;;;10.07;9.27;;;;;;;13.37;92.46;98703.13;4113078;28;20569;-45
2023/06/02 04:54:14;;;;;;;9.23;8.52;;;;;;;13.14;93.10;98703.50;4110107;28;20231;-47
2023/06/02 04:56:16;;;;;;;9.70;7.63;;;;;;;13.08;93.50;98703.72;4110489;28;20217;-45
2023/06/02 04:58:18;;;;;;;9.13;8.32;;;;;;;13.20;93.08;98702.47;4109342;28;20214;-45
2023/06/02 05:00:19;;;;;;;10.20;9.40;;;;;;;12.86;93.98;98701.03;4109360;28;20214;-46
2023/06/02 05:02:21;;;;;;;8.90;8.20;;;;;;;13.02;93.60;98705.59;4111116;28;20301;-44
2023/06/02 05:04:23;;;;;;;8.15;7.45;;;;;;;13.25;92.70;98709.91;4114392;28;20242;-45
2023/06/02 05:06:25;;;;;;;11.02;9.93;;;;;;;13.43;91.95;98712.28;4112487;28;20238;-45
2023/06/02 05:08:27;;;;;;;9.40;8.65;;;;;;;12.95;94.22;98704.97;4110723;28;20642;-46
2023/06/02 05:10:29;;;;;;;10.15;9.15;;;;;;;13.21;93.02;98715.09;4112886;28;20299;-45
2023/06/02 05:12:31;;;;;;;8.63;7.82;;;;;;;13.31;92.68;98709.69;4106131;28;20207;-45
2023/06/02 05:14:34;;;;;;;8.52;7.82;;;;;;;13.47;91.38;98716.97;4109285;28;20260;-44
2023/06/02 05:16:36;;;;;;;9.75;9.05;;;;;;;12.89;93.24;98719.72;4107472;28;20223;-45
2023/06/02 05:18:38;;;;;;;8.32;7.72;;;;;;;13.31;91.99;98715.19;4107758;28;20229;-44
2023/06/02 05:20:41;;;;;;;9.30;8.63;;;;;;;13.12;91.24;98722.19;4109960;28;20246;-45
2023/06/02 05:22:42;;;;;;;9.68;8.75;;;;;;;13.22;90.94;98714.00;4108313;28;20238;-44
2023/06/02 05:24:44;;;;;;;9.60;8.80;;;;;;;12.96;92.36;98711.31;4110740;28;20214;-45
2023/06/02 05:26:46;;;;;;;9.18;8.57;;;;;;;12.92;92.36;98710.97;4110381;28;20238;-44
2023/06/02 05:28:50;;;;;;;8.90;8.05;;;;;;;12.90;92.77;98706.81;4094727;28;20679;-45
2023/06/02 05:30:52;;;;;;;9.95;9.02;;;;;;;12.80;93.34;98707.56;4108600;28;20206;-44
2023/06/02 05:32:54;;;;;;;11.10;10.10;;;;;;;12.65;93.01;98701.88;4093470;28;22649;-45
2023/06/02 05:34:55;;;;;;;18.20;9.93;;;;;;;12.80;92.94;98704.81;4107113;28;20202;-45
2023/06/02 05:36:57;;;;;;;9.52;8.60;;;;;;;12.77;92.68;98705.31;4113526;28;20222;-45
2023/06/02 05:38:59;;;;;;;9.88;9.05;;;;;;;12.47;93.85;98706.91;4107939;28;20212;-43
2023/06/02 05:41:01;;;;;;;9.45;8.70;;;;;;;12.77;93.03;98715.50;4112882;28;20693;-45
2023/06/02 05:43:03;;;;;;;11.27;10.18;;;;;;;12.84;91.76;98719.66;4117703;28;20253;-44
2023/06/02 05:45:06;;;;;;;9.52;8.82;;;;;;;12.85;91.98;98718.56;4110150;28;20218;-46
2023/06/02 05:47:07;;;;;;;9.23;8.52;;;;;;;12.82;92.01;98716.34;4111069;28;20219;-44
2023/06/02 05:49:09;;;;;;;7.60;7.10;;;;;;;13.12;91.11;98716.69;4111739;28;20298;-44
2023/06/02 05:51:11;;;;;;;8.60;7.85;;;;;;;13.19;90.44;98713.72;4109173;28;21927;-44
2023/06/02 05:53:13;;;;;;;9.77;8.98;;;;;;;12.94;90.19;98718.94;4110456;28;20285;-44
2023/06/02 05:55:14;;;;;;;9.25;8.57;;;;;;;12.91;91.11;98725.78;4110902;28;20708;-45
2023/06/02 05:57:19;;;;;;;11.27;10.38;;;;;;;12.77;91.77;98720.97;4113081;28;20223;-45
2023/06/02 05:59:21;;;;;;;8.73;7.93;;;;;;;12.91;91.74;98727.72;4111798;28;20682;-45
2023/06/02 06:01:23;;;;;;;9.15;8.45;;;;;;;12.95;90.94;98721.47;4126855;28;20210;-45
2023/06/02 06:03:24;;;;;;;8.73;8.15;;;;;;;12.68;91.04;98723.34;4124823;28;20222;-46
2023/06/02 06:05:26;;;;;;;11.10;10.20;;;;;;;12.57;91.99;98724.31;4107590;28;20906;-45
2023/06/02 06:07:28;;;;;;;9.48;8.75;;;;;;;12.81;91.39;98722.94;4090518;29;20303;-44
2023/06/02 06:09:30;;;;;;;8.85;8.25;;;;;;;13.14;89.87;98730.16;4106526;28;20247;-44
2023/06/02 06:11:33;;;;;;;14.68;8.02;;;;;;;12.95;90.14;98732.44;4107916;28;20638;-45
2023/06/02 06:13:35;;;;;;;9.32;8.52;;;;;;;12.99;90.97;98732.75;4109713;28;20274;-44
2023/06/02 06:15:36;;;;;;;9.75;8.80;;;;;;;12.98;91.25;98726.41;4109840;28;20210;-44
2023/06/02 06:17:53;;;;;;;8.75;7.95;;;;;;;13.28;89.71;98721.22;4106916;28;20712;-44
2023/06/02 06:19:55;;;;;;;8.35;7.63;;;;;;;13.24;88.59;98719.25;4109691;28;20640;-44
2023/06/02 06:21:57;;;;;;;8.32;6.68;;;;;;;13.37;89.31;98719.63;4111771;28;20661;-44
2023/06/02 06:23:59;;;;;;;7.70;6.95;;;;;;;13.49;87.17;98727.72;4094817;28;20227;-44
2023/06/02 06:26:01;;;;;;;7.22;6.72;;;;;;;13.56;87.03;98726.38;4105935;28;20254;-44
2023/06/02 06:28:03;;;;;;;8.13;7.53;;;;;;;13.31;86.83;98728.91;4124577;28;20214;-45
2023/06/02 06:30:05;;;;;;;8.70;8.00;;;;;;;13.30;86.43;98735.50;4109941;28;20763;-43
2023/06/02 06:32:12;;;;;;;8.77;7.97;;;;;;;13.03;88.22;98736.66;4112310;28;20211;-45
2023/06/02 06:34:33;;;;;;;7.90;7.00;;;;;;;13.38;88.01;98735.03;4112398;28;20230;-45
2023/06/02 06:36:42;;;;;;;7.25;6.63;;;;;;;13.46;86.55;98737.31;4112520;28;21121;-45
2023/06/02 06:38:44;;;;;;;8.73;8.07;;;;;;;13.34;86.58;98742.16;4111091;28;20209;-45
2023/06/02 06:40:46;;;;;;;7.75;7.15;;;;;;;13.61;85.13;98742.91;4113537;28;20207;-45
2023/06/02 06:42:48;;;;;;;8.00;7.40;;;;;;;13.28;86.23;98743.19;4105080;28;20292;-45
2023/06/02 06:44:50;;;;;;;7.65;6.93;;;;;;;13.42;86.08;98744.41;4113120;28;20677;-44
2023/06/02 06:46:52;;;;;;;14.70;7.03;;;;;;;13.52;85.82;98739.00;4113851;28;20241;-45
2023/06/02 06:48:55;;;;;;;8.35;7.63;;;;;;;13.22;84.25;98744.25;4128439;28;20284;-44
2023/06/02 06:50:57;;;;;;;9.10;8.40;;;;;;;12.65;88.02;98740.31;4125292;28;20206;-44
2023/06/02 06:52:59;;;;;;;12.25;8.30;;;;;;;12.87;88.23;98741.13;4112355;28;20277;-45
2023/06/02 06:55:00;;;;;;;8.13;7.53;;;;;;;13.07;87.41;98746.88;4094938;28;20218;-44
2023/06/02 06:57:03;;;;;;;8.98;8.20;;;;;;;13.31;86.33;98748.16;4112108;28;20297;-44
2023/06/02 06:59:07;;;;;;;8.63;6.80;;;;;;;13.36;85.09;98753.72;4113727;28;21109;-44
2023/06/02 07:01:10;;;;;;;7.53;7.03;;;;;;;13.52;85.01;98754.66;4127586;28;20214;-44
2023/06/02 07:03:16;;;;;;;8.55;7.63;;;;;;;13.76;84.86;98756.78;4110588;28;20601;-44
2023/06/02 07:05:19;;;;;;;7.68;6.55;;;;;;;13.38;84.00;98753.47;4110834;28;20294;-45
2023/06/02 07:07:21;;;;;;;8.48;7.57;;;;;;;13.27;84.20;98760.78;4128742;28;20277;-45
2023/06/02 07:09:23;;;;;;;7.53;6.90;;;;;;;13.13;85.23;98762.31;4106383;28;20222;-44
2023/06/02 07:11:26;;;;;;;7.22;6.63;;;;;;;13.34;83.49;98768.81;4112734;28;20207;-45
2023/06/02 07:13:29;;;;;;;8.27;7.47;;;;;;;13.15;85.53;98765.63;4111070;28;20738;-45
2023/06/02 07:15:31;;;;;;;8.52;7.82;;;;;;;13.60;84.97;98767.91;4110222;28;20214;-45
2023/06/02 07:17:33;;;;;;;7.95;7.25;;;;;;;13.87;83.67;98766.75;4104023;28;20666;-47
2023/06/02 07:19:35;;;;;;;7.53;6.95;;;;;;;14.21;82.51;98770.84;4110313;28;20242;-44
2023/06/02 07:21:40;;;;;;;6.95;6.43;;;;;;;14.35;81.51;98771.19;4112082;28;20237;-44
2023/06/02 07:23:42;;;;;;;8.38;7.78;;;;;;;14.44;81.08;98775.09;4109813;28;20227;-44
2023/06/02 07:25:44;;;;;;;11.48;7.88;;;;;;;14.25;81.66;98772.00;4124329;28;20206;-44
2023/06/02 07:27:46;;;;;;;7.93;7.03;;;;;;;14.42;80.63;98772.59;4111679;28;20316;-44
2023/06/02 07:29:47;;;;;;;6.47;6.05;;;;;;;14.65;79.91;98766.66;4089462;28;20267;-44
2023/06/02 07:31:49;;;;;;;7.85;7.20;;;;;;;14.59;78.75;98776.00;4112781;28;20267;-44
2023/06/02 07:33:51;;;;;;;7.78;7.07;;;;;;;14.73;78.59;98777.16;4096092;28;20317;-45
2023/06/02 07:35:53;;;;;;;6.10;5.68;;;;;;;14.89;77.76;98767.81;4096599;28;20247;-45
2023/06/02 07:37:55;;;;;;;6.38;5.97;;;;;;;14.94;78.06;98769.75;4112791;28;20246;-45
2023/06/02 07:39:56;;;;;;;7.32;6.70;;;;;;;15.06;77.80;98773.94;4111138;28;20211;-45
2023/06/02 07:41:58;;;;;;;7.53;6.88;;;;;;;15.02;76.76;98767.31;4113722;28;20214;-45
2023/06/02 07:44:00;;;;;;;7.25;6.75;;;;;;;14.44;77.66;98784.16;4112908;28;20296;-44
2023/06/02 07:46:03;;;;;;;7.75;7.22;;;;;;;13.95;80.07;98776.41;4095650;28;20238;-44
2023/06/02 07:48:05;;;;;;;9.85;7.53;;;;;;;14.55;80.25;98774.88;4096923;28;20277;-44
2023/06/02 07:50:08;;;;;;;7.30;6.78;;;;;;;14.79;78.54;98767.81;4095248;28;20250;-45
2023/06/02 07:52:10;;;;;;;8.75;8.05;;;;;;;14.61;78.54;98768.28;4089686;28;20215;-45
2023/06/02 07:54:11;;;;;;;8.13;7.53;;;;;;;14.82;78.52;98766.44;4112508;28;20239;-44
2023/06/02 07:56:13;;;;;;;8.75;7.13;;;;;;;14.83;78.67;98768.09;4111364;28;20289;-44
2023/06/02 07:58:15;;;;;;;6.95;6.45;;;;;;;15.31;77.75;98770.38;4111713;28;20688;-44
2023/06/02 08:00:21;;;;;;;9.15;8.35;;;;;;;14.95;77.67;98760.38;4112186;28;20236;-44
2023/06/02 08:02:23;;;;;;;8.77;7.53;;;;;;;15.42;77.41;98766.59;4111485;28;20563;-45
2023/06/02 08:04:27;;;;;;;7.32;6.63;;;;;;;15.52;75.20;98761.06;4093704;28;20211;-45
2023/06/02 08:06:29;;;;;;;7.47;6.88;;;;;;;15.72;74.87;98759.13;4107540;28;20207;-45
2023/06/02 08:08:31;;;;;;;7.30;6.03;;;;;;;15.72;74.29;98753.59;4109435;28;20209;-44
2023/06/02 08:10:33;;;;;;;6.30;5.70;;;;;;;15.83;73.49;98769.03;4108805;28;20240;-44
2023/06/02 08:12:35;;;;;;;7.38;6.68;;;;;;;15.31;74.84;98762.13;4109054;28;20249;-44
2023/06/02 08:14:37;;;;;;;7.47;6.70;;;;;;;14.50;76.68;98763.81;4108746;28;20269;-45
2023/06/02 08:16:38;;;;;;;10.50;7.55;;;;;;;14.94;75.79;98758.72;4107186;28;20291;-44
2023/06/02 08:18:58;;;;;;;6.93;6.30;;;;;;;15.13;76.34;98751.59;4108122;28;20246;-44
2023/06/02 08:21:00;;;;;;;21.50;6.43;;;;;;;15.29;75.42;98748.59;4108416;28;20309;-44
2023/06/02 08:23:02;;;;;;;6.25;5.82;;;;;;;15.72;75.00;98759.13;4107543;28;20238;-45
2023/06/02 08:25:04;;;;;;;7.88;7.15;;;;;;;16.11;71.80;98746.38;4112489;28;20701;-44
2023/06/02 08:27:08;;;;;;;6.50;5.85;;;;;;;16.65;70.81;98749.25;4111058;28;20235;-46
2023/06/02 08:29:10;;;;;;;6.38;5.85;;;;;;;16.91;70.56;98754.38;4109082;28;20214;-47
2023/06/02 08:31:11;;;;;;;6.55;6.07;;;;;;;17.43;69.10;98741.59;4112163;28;20210;-44
2023/06/02 08:33:14;;;;;;;6.70;6.20;;;;;;;17.43;67.48;98744.34;4108308;28;20277;-47
2023/06/02 08:35:16;;;;;;;6.00;5.50;;;;;;;17.80;66.93;98744.56;4114326;28;20249;-45
2023/06/02 08:37:18;;;;;;;6.85;6.22;;;;;;;17.68;65.45;98737.78;4127251;28;20225;-45
2023/06/02 08:39:19;;;;;;;6.47;5.93;;;;;;;17.22;66.70;98733.69;4113809;28;20215;-45
2023/06/02 08:41:23;;;;;;;7.65;6.90;;;;;;;17.97;66.31;98722.81;4096201;28;20212;-45
2023/06/02 08:43:25;;;;;;;6.50;5.72;;;;;;;16.93;67.66;98730.03;4110549;28;20239;-45
2023/06/02 08:45:26;;;;;;;5.30;4.82;;;;;;;17.87;66.39;98727.63;4096074;28;20207;-44
2023/06/02 08:47:30;;;;;;;6.30;5.88;;;;;;;17.57;66.09;98731.50;4110505;28;20575;-45
2023/06/02 08:49:34;;;;;;;6.55;5.30;;;;;;;18.16;64.71;98733.97;4097395;28;20211;-47
2023/06/02 08:51:37;;;;;;;7.32;6.72;;;;;;;16.98;64.44;98727.22;4107530;28;20203;-45
2023/06/02 08:53:43;;;;;;;7.78;7.10;;;;;;;17.36;66.67;98734.69;4127214;28;20252;-45
2023/06/02 08:55:47;;;;;;;5.25;4.82;;;;;;;18.29;64.64;98730.50;4127653;28;20600;-44
2023/06/02 08:57:51;;;;;;;5.78;5.03;;;;;;;18.93;63.32;98719.75;4111058;28;20211;-45
2023/06/02 08:59:52;;;;;;;6.32;5.82;;;;;;;19.07;62.43;98717.88;4113565;28;20207;-45
2023/06/02 09:01:55;;;;;;;7.07;5.75;;;;;;;19.08;59.85;98716.75;4112039;28;20237;-44
2023/06/02 09:03:57;;;;;;;5.55;5.15;;;;;;;19.55;60.72;98719.34;4109841;28;20238;-45
2023/06/02 09:05:59;;;;;;;6.82;5.20;;;;;;;19.57;60.42;98722.69;4109270;28;20335;-44
2023/06/02 09:08:10;;;;;;;6.07;4.90;;;;;;;19.47;59.83;98717.28;4112714;28;20682;-45
2023/06/02 09:10:31;;;;;;;5.30;4.82;;;;;;;19.56;60.00;98719.06;4126206;28;20276;-45
2023/06/02 09:12:53;;;;;;;4.57;4.13;;;;;;;20.11;57.98;98717.28;4110670;28;20269;-47
2023/06/02 09:15:09;;;;;;;4.85;4.43;;;;;;;20.14;58.23;98717.50;4115228;28;20597;-44
2023/06/02 09:17:28;;;;;;;5.03;4.53;;;;;;;20.43;56.70;98711.63;4110495;28;20206;-45
2023/06/02 09:19:50;;;;;;;4.88;4.30;;;;;;;20.59;56.76;98713.78;4108190;28;20670;-47
2023/06/02 09:21:52;;;;;;;6.30;4.85;;;;;;;20.72;55.36;98714.94;4111547;28;20624;-45
2023/06/02 09:23:55;;;;;;;5.00;3.95;;;;;;;20.00;56.70;98711.06;4094922;28;20241;-46
2023/06/02 09:26:26;;;;;;;4.60;4.20;;;;;;;20.52;57.08;98713.38;4125491;28;20206;-44
2023/06/02 09:28:28;;;;;;;5.35;4.72;;;;;;;20.55;56.83;98717.50;4127393;28;20268;-45
2023/06/02 09:30:32;;;;;;;4.68;4.25;;;;;;;20.38;55.02;98711.75;4110592;28;20206;-46
2023/06/02 09:32:36;;;;;;;4.55;4.15;;;;;;;20.56;56.30;98708.84;4112232;28;20260;-45
2023/06/02 09:34:38;;;;;;;4.60;4.18;;;;;;;20.40;56.28;98713.09;4110193;28;20219;-45
2023/06/02 09:36:41;;;;;;;4.97;4.20;;;;;;;20.78;55.24;98708.13;4111724;28;20202;-45